createdAt,value
2017-12-13T00:00:38.935Z,19.80
2017-12-13T00:03:06.318Z,20.20
2017-12-13T00:05:33.727Z,21.40
2017-12-13T00:08:01.123Z,20.53
2017-12-13T00:10:28.530Z,16.50
2017-12-13T00:12:55.922Z,20.60
2017-12-13T00:15:23.336Z,19.57
2017-12-13T00:17:50.722Z,19.33
2017-12-13T00:20:18.150Z,20.10
2017-12-13T00:22:45.543Z,20.20
2017-12-13T00:25:12.935Z,18.87
2017-12-13T00:27:40.353Z,17.37
2017-12-13T00:30:07.743Z,19.13
2017-12-13T00:32:35.143Z,18.03
2017-12-13T00:35:02.539Z,19.17
2017-12-13T00:37:29.935Z,18.90
2017-12-13T00:39:57.318Z,18.77
2017-12-13T00:42:24.726Z,18.50
2017-12-13T00:44:52.120Z,18.20
2017-12-13T00:47:19.603Z,20.17
2017-12-13T00:49:46.995Z,19.53
2017-12-13T00:52:14.410Z,21.33
2017-12-13T00:54:41.807Z,22.23
2017-12-13T00:57:09.211Z,20.37
2017-12-13T00:59:36.607Z,19.90
2017-12-13T01:02:04.929Z,19.53
2017-12-13T01:04:32.315Z,21.50
2017-12-13T01:06:59.719Z,22.57
2017-12-13T01:09:27.109Z,20.83
2017-12-13T01:11:54.514Z,20.87
2017-12-13T01:14:21.899Z,21.03
2017-12-13T01:16:49.297Z,23.03
2017-12-13T01:19:16.692Z,22.17
2017-12-13T01:21:44.098Z,22.53
2017-12-13T01:24:11.501Z,24.47
2017-12-13T01:26:38.911Z,23.80
2017-12-13T01:29:06.314Z,23.07
2017-12-13T01:31:33.998Z,22.50
2017-12-13T01:34:01.399Z,25.20
2017-12-13T01:36:28.797Z,24.47
2017-12-13T01:38:56.291Z,23.00
2017-12-13T01:41:23.687Z,23.83
2017-12-13T01:43:51.088Z,26.00
2017-12-13T01:46:18.486Z,26.87
2017-12-13T01:48:45.890Z,27.80
2017-12-13T01:51:13.279Z,27.30
2017-12-13T01:53:40.671Z,25.40
2017-12-13T01:56:08.058Z,25.53
2017-12-13T01:58:35.493Z,26.83
2017-12-13T02:01:02.902Z,25.60
2017-12-13T02:03:30.286Z,26.43
2017-12-13T02:05:57.683Z,24.10
2017-12-13T02:08:25.070Z,27.13
2017-12-13T02:10:52.475Z,27.03
2017-12-13T02:13:19.894Z,26.83
2017-12-13T02:15:47.303Z,28.87
2017-12-13T02:18:14.703Z,27.70
2017-12-13T02:20:42.124Z,28.97
2017-12-13T02:23:09.516Z,28.73
2017-12-13T02:25:36.916Z,26.73
2017-12-13T02:28:04.389Z,27.10
2017-12-13T02:30:31.795Z,27.65
2017-12-13T02:32:59.203Z,29.13
2017-12-13T02:35:26.616Z,24.03
2017-12-13T02:37:54.007Z,26.17
2017-12-13T02:40:33.202Z,27.13
2017-12-13T02:43:00.595Z,27.50
2017-12-13T02:45:28.051Z,28.77
2017-12-13T02:47:55.449Z,28.27
2017-12-13T02:50:22.851Z,27.47
2017-12-13T02:52:50.329Z,27.23
2017-12-13T02:55:17.724Z,25.83
2017-12-13T02:57:45.146Z,27.40
2017-12-13T03:00:12.547Z,24.90
2017-12-13T03:02:39.939Z,26.67
2017-12-13T03:05:07.344Z,24.73
2017-12-13T03:07:34.750Z,24.33
2017-12-13T03:10:02.145Z,25.33
2017-12-13T03:12:29.531Z,26.10
2017-12-13T03:14:56.926Z,23.93
2017-12-13T03:17:24.319Z,26.30
2017-12-13T03:19:51.735Z,24.67
2017-12-13T03:22:19.129Z,24.90
2017-12-13T03:24:46.633Z,21.90
2017-12-13T03:27:14.035Z,25.10
2017-12-13T03:29:41.438Z,24.20
2017-12-13T03:32:08.844Z,23.30
2017-12-13T03:34:36.238Z,24.93
2017-12-13T03:37:03.643Z,24.97
2017-12-13T03:39:31.040Z,23.70
2017-12-13T03:41:58.439Z,24.80
2017-12-13T03:44:25.836Z,24.80
2017-12-13T03:46:53.230Z,23.97
2017-12-13T03:49:20.618Z,22.50
2017-12-13T03:51:48.023Z,22.33
2017-12-13T03:54:15.418Z,24.23
2017-12-13T03:56:42.820Z,21.93
2017-12-13T03:59:10.211Z,21.50
2017-12-13T04:01:37.615Z,24.03
2017-12-13T04:04:05.087Z,24.23
2017-12-13T04:06:32.483Z,21.87
2017-12-13T04:08:59.879Z,23.53
2017-12-13T04:11:27.283Z,21.87
2017-12-13T04:13:54.670Z,21.77
2017-12-13T04:16:22.074Z,20.80
2017-12-13T04:18:49.464Z,22.07
2017-12-13T04:21:16.858Z,21.30
2017-12-13T04:23:44.251Z,20.70
2017-12-13T04:26:11.690Z,21.63
2017-12-13T04:28:39.074Z,20.60
2017-12-13T04:31:06.487Z,20.87
2017-12-13T04:33:33.891Z,21.33
2017-12-13T04:36:01.290Z,18.97
2017-12-13T04:38:28.691Z,19.77
2017-12-13T04:40:56.088Z,19.00
2017-12-13T04:43:23.486Z,19.20
2017-12-13T04:45:50.895Z,18.13
2017-12-13T04:48:18.417Z,18.90
2017-12-13T04:50:45.774Z,19.63
2017-12-13T04:53:13.174Z,20.90
2017-12-13T04:55:40.566Z,18.97
2017-12-13T04:58:07.964Z,19.30
2017-12-13T05:00:35.358Z,20.00
2017-12-13T05:03:02.809Z,20.70
2017-12-13T05:05:30.207Z,19.90
2017-12-13T05:07:57.617Z,18.03
2017-12-13T05:10:25.017Z,17.77
2017-12-13T05:12:52.408Z,19.03
2017-12-13T05:15:19.799Z,18.47
2017-12-13T05:17:47.203Z,18.23
2017-12-13T05:20:14.614Z,18.53
2017-12-13T05:22:42.039Z,18.57
2017-12-13T05:25:09.431Z,17.53
2017-12-13T05:27:36.846Z,17.43
2017-12-13T05:30:05.033Z,17.93
2017-12-13T05:32:32.429Z,15.20
2017-12-13T05:34:59.818Z,17.40
2017-12-13T05:37:27.234Z,17.83
2017-12-13T05:39:54.640Z,17.17
2017-12-13T05:42:22.044Z,15.13
2017-12-13T05:44:49.431Z,14.40
2017-12-13T05:47:16.827Z,16.50
2017-12-13T05:49:44.238Z,14.43
2017-12-13T05:52:11.710Z,15.20
2017-12-13T05:54:39.118Z,14.93
2017-12-13T05:57:06.978Z,14.33
2017-12-13T05:59:34.410Z,13.80
2017-12-13T06:02:01.803Z,13.90
2017-12-13T06:04:29.239Z,12.77
2017-12-13T06:06:56.635Z,11.93
2017-12-13T06:09:24.048Z,12.87
2017-12-13T06:11:51.454Z,11.60
2017-12-13T06:14:18.943Z,11.03
2017-12-13T06:16:46.335Z,10.93
2017-12-13T06:19:13.741Z,10.30
2017-12-13T06:21:41.156Z,11.03
2017-12-13T06:24:08.553Z,11.60
2017-12-13T06:26:35.947Z,10.50
2017-12-13T06:29:03.357Z,9.43
2017-12-13T06:31:30.765Z,9.65
2017-12-13T06:33:58.203Z,9.27
2017-12-13T06:36:25.591Z,9.33
2017-12-13T06:38:52.985Z,8.10
2017-12-13T06:41:20.379Z,9.00
2017-12-13T06:43:47.771Z,7.87
2017-12-13T06:46:15.163Z,7.40
2017-12-13T06:48:42.623Z,7.33
2017-12-13T06:51:10.004Z,7.43
2017-12-13T06:53:37.387Z,6.67
2017-12-13T06:56:04.882Z,6.63
2017-12-13T06:58:32.271Z,6.10
2017-12-13T07:00:59.670Z,6.23
2017-12-13T07:03:27.177Z,6.70
2017-12-13T07:05:54.543Z,5.90
2017-12-13T07:08:21.963Z,6.33
2017-12-13T07:10:49.350Z,7.07
2017-12-13T07:13:16.738Z,6.30
2017-12-13T07:15:44.162Z,6.50
2017-12-13T07:18:11.567Z,6.00
2017-12-13T07:20:39.031Z,5.53
2017-12-13T07:23:06.419Z,5.30
2017-12-13T07:25:33.818Z,5.33
2017-12-13T07:28:01.203Z,5.90
2017-12-13T07:30:28.607Z,5.93
2017-12-13T07:32:56.062Z,5.80
2017-12-13T07:35:23.459Z,5.20
2017-12-13T07:37:50.844Z,5.87
2017-12-13T07:40:18.240Z,6.20
2017-12-13T07:42:45.700Z,4.47
2017-12-13T07:45:13.145Z,5.63
2017-12-13T07:47:40.526Z,5.50
2017-12-13T07:50:07.918Z,5.17
2017-12-13T07:52:35.307Z,5.03
2017-12-13T07:55:02.700Z,5.03
2017-12-13T07:57:30.088Z,5.07
2017-12-13T07:59:57.484Z,4.50
2017-12-13T08:02:24.875Z,5.10
2017-12-13T08:04:52.296Z,4.97
2017-12-13T08:07:19.684Z,5.00
2017-12-13T08:09:47.066Z,3.90
2017-12-13T08:12:14.453Z,4.10
2017-12-13T08:14:41.864Z,4.10
2017-12-13T08:17:09.246Z,4.03
2017-12-13T08:19:36.626Z,2.90
2017-12-13T08:22:04.026Z,3.40
2017-12-13T08:24:31.397Z,3.40
2017-12-13T08:26:58.906Z,3.90
2017-12-13T08:29:26.206Z,3.10
2017-12-13T08:31:53.598Z,3.90
2017-12-13T08:34:21.044Z,3.90
2017-12-13T08:36:48.435Z,3.90
2017-12-13T08:39:15.811Z,3.57
2017-12-13T08:41:43.202Z,3.67
2017-12-13T08:44:11.309Z,3.40
2017-12-13T08:46:38.670Z,3.27
2017-12-13T08:49:06.068Z,4.20
2017-12-13T08:51:33.456Z,3.87
2017-12-13T08:54:00.835Z,3.47
2017-12-13T08:56:28.220Z,3.80
2017-12-13T08:58:55.603Z,3.90
2017-12-13T09:01:22.989Z,3.87
2017-12-13T09:03:50.375Z,4.63
2017-12-13T09:06:17.765Z,4.10
2017-12-13T09:08:45.155Z,4.27
2017-12-13T09:11:12.543Z,4.10
2017-12-13T09:13:39.931Z,4.37
2017-12-13T09:16:07.319Z,3.93
2017-12-13T09:18:34.743Z,4.00
2017-12-13T09:21:02.176Z,2.87
2017-12-13T09:23:29.519Z,3.40
2017-12-13T09:25:56.894Z,5.10
2017-12-13T09:28:24.287Z,3.60
2017-12-13T09:30:51.675Z,3.33
2017-12-13T09:33:19.078Z,3.37
2017-12-13T09:35:46.445Z,4.03
2017-12-13T09:38:13.827Z,3.63
2017-12-13T09:40:41.206Z,4.10
2017-12-13T09:43:08.598Z,3.80
2017-12-13T09:45:35.988Z,2.70
2017-12-13T09:48:03.363Z,3.10
2017-12-13T09:50:30.748Z,3.43
2017-12-13T09:52:58.147Z,3.53
2017-12-13T09:55:25.528Z,3.10
2017-12-13T09:57:52.934Z,3.43
2017-12-13T10:00:20.315Z,4.10
2017-12-13T10:02:47.702Z,4.03
2017-12-13T10:05:15.086Z,3.03
2017-12-13T10:07:42.471Z,3.60
2017-12-13T10:10:09.855Z,3.20
2017-12-13T10:12:37.252Z,3.03
2017-12-13T10:15:04.750Z,3.60
2017-12-13T10:17:32.141Z,3.73
2017-12-13T10:19:59.522Z,3.57
2017-12-13T10:22:26.985Z,3.60
2017-12-13T10:24:54.375Z,3.80
2017-12-13T10:27:21.758Z,3.57
2017-12-13T10:29:49.151Z,3.33
2017-12-13T10:32:16.536Z,3.87
2017-12-13T10:34:43.921Z,4.20
2017-12-13T10:37:11.303Z,3.20
2017-12-13T10:39:38.682Z,3.57
2017-12-13T10:42:06.062Z,3.40
2017-12-13T10:44:33.455Z,3.90
2017-12-13T10:47:00.851Z,3.60
2017-12-13T10:49:28.239Z,2.83
2017-12-13T10:51:55.643Z,3.47
2017-12-13T10:54:23.026Z,3.50
2017-12-13T10:56:50.414Z,2.67
2017-12-13T10:59:17.827Z,2.97
2017-12-13T11:01:45.203Z,3.60
2017-12-13T11:04:12.608Z,3.87
2017-12-13T11:06:39.975Z,3.83
2017-12-13T11:09:07.363Z,2.80
2017-12-13T11:11:34.741Z,3.43
2017-12-13T11:14:02.124Z,3.50
2017-12-13T11:16:29.508Z,3.10
2017-12-13T11:18:56.891Z,3.63
2017-12-13T11:21:24.295Z,3.50
2017-12-13T11:23:51.676Z,3.67
2017-12-13T11:26:19.069Z,3.80
2017-12-13T11:28:46.467Z,3.63
2017-12-13T11:31:13.856Z,2.93
2017-12-13T11:33:41.244Z,3.77
2017-12-13T11:36:08.626Z,3.57
2017-12-13T11:38:36.007Z,3.60
2017-12-13T11:41:03.402Z,3.70
2017-12-13T11:43:30.771Z,4.33
2017-12-13T11:45:58.157Z,3.43
2017-12-13T11:48:25.536Z,4.80
2017-12-13T11:50:52.918Z,4.23
2017-12-13T11:53:20.312Z,5.30
2017-12-13T11:55:47.703Z,4.17
2017-12-13T11:58:15.082Z,4.20
2017-12-13T12:00:42.670Z,4.47
2017-12-13T12:03:10.083Z,4.30
2017-12-13T12:05:37.455Z,4.60
2017-12-13T12:08:04.944Z,4.50
2017-12-13T12:10:32.319Z,4.53
2017-12-13T12:12:59.715Z,3.80
2017-12-13T12:15:27.087Z,4.27
2017-12-13T12:17:54.478Z,5.40
2017-12-13T12:20:21.866Z,4.40
2017-12-13T12:22:49.248Z,4.67
2017-12-13T12:25:16.730Z,4.67
2017-12-13T12:27:44.114Z,4.03
2017-12-13T12:30:11.494Z,4.90
2017-12-13T12:32:38.912Z,4.57
2017-12-13T12:35:06.295Z,4.13
2017-12-13T12:37:33.678Z,3.43
2017-12-13T12:40:01.059Z,3.43
2017-12-13T12:42:28.442Z,3.70
2017-12-13T12:47:29.534Z,4.30
2017-12-13T12:49:56.914Z,3.67
2017-12-13T12:52:24.312Z,3.93
2017-12-13T12:54:51.683Z,4.10
2017-12-13T12:57:19.198Z,3.80
2017-12-13T12:59:46.599Z,3.47
2017-12-13T13:02:13.979Z,4.53
2017-12-13T13:04:41.446Z,3.40
2017-12-13T13:07:08.839Z,3.77
2017-12-13T13:09:36.226Z,4.60
2017-12-13T13:12:03.619Z,3.50
2017-12-13T13:14:31.002Z,3.43
2017-12-13T13:16:58.384Z,3.30
2017-12-13T13:19:25.776Z,4.23
2017-12-13T13:21:53.152Z,3.53
2017-12-13T13:24:20.543Z,3.77
2017-12-13T13:26:47.925Z,4.00
2017-12-13T13:29:15.325Z,4.10
2017-12-13T13:31:42.714Z,5.00
2017-12-13T13:34:10.099Z,4.70
2017-12-13T13:36:37.480Z,4.20
2017-12-13T13:39:04.879Z,3.83
2017-12-13T13:41:32.258Z,3.33
2017-12-13T13:43:59.655Z,3.90
2017-12-13T13:46:27.039Z,4.10
2017-12-13T13:48:54.456Z,4.00
2017-12-13T13:51:21.839Z,3.70
2017-12-13T13:53:49.227Z,4.20
2017-12-13T13:56:16.603Z,2.90
2017-12-13T13:58:43.995Z,3.43
2017-12-13T14:01:11.385Z,3.00
2017-12-13T14:03:38.771Z,3.40
2017-12-13T14:06:06.159Z,3.80
2017-12-13T14:08:33.543Z,4.00
2017-12-13T14:11:00.923Z,4.07
2017-12-13T14:13:28.324Z,3.77
2017-12-13T14:15:55.762Z,3.30
2017-12-13T14:18:23.204Z,3.90
2017-12-13T14:20:50.598Z,4.30
2017-12-13T14:23:17.988Z,4.10
2017-12-13T14:25:45.645Z,4.57
2017-12-13T14:28:13.042Z,4.97
2017-12-13T14:30:40.423Z,4.43
2017-12-13T14:33:07.808Z,4.40
2017-12-13T14:35:35.199Z,3.70
2017-12-13T14:38:02.575Z,4.50
2017-12-13T14:40:29.962Z,4.40
2017-12-13T14:42:57.343Z,5.07
2017-12-13T14:45:24.764Z,4.33
2017-12-13T14:47:52.142Z,4.43
2017-12-13T14:50:19.535Z,4.87
2017-12-13T14:52:46.924Z,4.30
2017-12-13T14:55:14.315Z,4.90
2017-12-13T14:57:41.703Z,3.97
2017-12-13T15:00:09.179Z,3.80
2017-12-13T15:02:36.582Z,4.80
2017-12-13T15:05:03.972Z,4.47
2017-12-13T15:07:31.370Z,4.13
2017-12-13T15:09:58.799Z,3.80
2017-12-13T15:12:26.178Z,4.70
2017-12-13T15:14:53.569Z,5.60
2017-12-13T15:17:20.948Z,3.80
2017-12-13T15:19:48.378Z,3.07
2017-12-13T15:22:15.951Z,3.60
2017-12-13T15:24:43.434Z,3.63
2017-12-13T15:27:10.836Z,4.70
2017-12-13T15:29:38.216Z,3.70
2017-12-13T15:32:05.610Z,4.77
2017-12-13T15:34:33.015Z,3.37
2017-12-13T15:37:00.371Z,3.40
2017-12-13T15:39:27.756Z,3.20
2017-12-13T15:41:55.145Z,3.60
2017-12-13T15:44:22.523Z,3.33
2017-12-13T15:46:49.910Z,2.60
2017-12-13T15:49:17.284Z,3.03
2017-12-13T15:51:44.740Z,2.97
2017-12-13T15:54:12.063Z,2.63
2017-12-13T15:56:39.462Z,2.20
2017-12-13T15:59:06.834Z,4.53
2017-12-13T16:01:34.220Z,2.30
2017-12-13T16:04:01.608Z,2.63
2017-12-13T16:06:28.991Z,3.10
2017-12-13T16:08:56.373Z,2.90
2017-12-13T16:11:23.750Z,2.17
2017-12-13T16:13:51.139Z,2.97
2017-12-13T16:16:18.523Z,3.40
2017-12-13T16:18:45.919Z,4.17
2017-12-13T16:21:13.330Z,2.80
2017-12-13T16:23:40.691Z,2.30
2017-12-13T16:26:08.079Z,2.43
2017-12-13T16:28:35.487Z,2.60
2017-12-13T16:31:02.871Z,2.90
2017-12-13T16:33:30.343Z,2.60
2017-12-13T16:35:57.815Z,3.17
2017-12-13T16:38:25.207Z,3.00
2017-12-13T16:40:52.594Z,3.70
2017-12-13T16:43:19.978Z,3.53
2017-12-13T16:45:47.355Z,3.67
2017-12-13T16:48:14.758Z,4.00
2017-12-13T16:50:42.138Z,3.70
2017-12-13T16:53:09.523Z,3.50
2017-12-13T16:55:36.907Z,3.50
2017-12-13T16:58:04.300Z,4.10
2017-12-13T17:00:31.686Z,4.20
2017-12-13T17:02:59.068Z,3.70
2017-12-13T17:05:26.459Z,3.80
2017-12-13T17:07:53.840Z,3.13
2017-12-13T17:10:21.232Z,4.10
2017-12-13T17:12:48.622Z,3.50
2017-12-13T17:15:16.015Z,3.43
2017-12-13T17:17:43.396Z,3.37
2017-12-13T17:20:10.800Z,3.93
2017-12-13T17:22:38.173Z,4.27
2017-12-13T17:25:05.565Z,3.57
2017-12-13T17:27:32.941Z,2.80
2017-12-13T17:30:00.322Z,3.40
2017-12-13T17:32:27.706Z,3.30
2017-12-13T17:34:55.108Z,3.10
2017-12-13T17:37:22.491Z,4.20
2017-12-13T17:39:49.920Z,4.40
2017-12-13T17:42:17.286Z,4.43
2017-12-13T17:44:44.675Z,6.87
2017-12-13T17:47:12.056Z,5.67
2017-12-13T17:49:39.463Z,4.73
2017-12-13T17:52:06.848Z,5.90
2017-12-13T17:54:34.235Z,6.27
2017-12-13T17:57:01.615Z,6.70
2017-12-13T17:59:29.023Z,6.60
2017-12-13T18:01:56.402Z,5.93
2017-12-13T18:04:23.780Z,5.93
2017-12-13T18:06:51.162Z,6.20
2017-12-13T18:09:18.538Z,6.10
2017-12-13T18:11:45.939Z,6.90
2017-12-13T18:14:13.320Z,6.50
2017-12-13T18:16:40.720Z,9.83
2017-12-13T18:19:08.108Z,7.40
2017-12-13T18:21:35.514Z,9.73
2017-12-13T18:24:02.899Z,12.77
2017-12-13T18:26:30.296Z,16.50
2017-12-13T18:28:57.676Z,7.20
2017-12-13T18:31:25.068Z,7.87
2017-12-13T18:33:52.469Z,8.50
2017-12-13T18:36:19.910Z,7.83
2017-12-13T18:38:47.295Z,8.83
2017-12-13T18:41:14.687Z,8.57
2017-12-13T18:43:42.084Z,8.97
2017-12-13T18:46:09.467Z,6.40
2017-12-13T18:48:36.848Z,7.70
2017-12-13T18:51:04.231Z,7.03
2017-12-13T18:53:31.615Z,8.33
2017-12-13T18:55:59.000Z,7.80
2017-12-13T18:58:26.418Z,8.20
2017-12-13T19:00:53.875Z,11.00
2017-12-13T19:03:21.270Z,9.33
2017-12-13T19:05:48.650Z,8.70
2017-12-13T19:08:16.058Z,9.50
2017-12-13T19:10:43.444Z,9.07
2017-12-13T19:13:11.078Z,8.50
2017-12-13T19:15:39.246Z,8.60
2017-12-13T19:18:06.646Z,6.40
2017-12-13T19:20:34.021Z,7.60
2017-12-13T19:23:01.519Z,7.53
2017-12-13T19:25:28.887Z,7.90
2017-12-13T19:27:56.275Z,6.57
2017-12-13T19:30:23.671Z,8.37
2017-12-13T19:32:51.182Z,7.77
2017-12-13T19:35:18.567Z,6.90
2017-12-13T19:37:45.959Z,6.47
2017-12-13T19:40:13.338Z,6.73
2017-12-13T19:42:40.809Z,8.07
2017-12-13T19:45:08.191Z,7.50
2017-12-13T19:47:35.632Z,7.30
2017-12-13T19:50:03.015Z,6.60
2017-12-13T19:52:30.396Z,7.20
2017-12-13T19:54:57.791Z,6.30
2017-12-13T19:57:25.164Z,6.20
2017-12-13T19:59:52.700Z,5.33
2017-12-13T20:02:20.084Z,5.53
2017-12-13T20:04:47.466Z,5.63
2017-12-13T20:07:14.846Z,6.40
2017-12-13T20:09:42.249Z,6.00
2017-12-13T20:12:09.622Z,6.30
2017-12-13T20:14:37.026Z,4.73
2017-12-13T20:17:04.407Z,5.27
2017-12-13T20:19:31.797Z,5.17
2017-12-13T20:21:59.174Z,6.43
2017-12-13T20:24:26.559Z,6.37
2017-12-13T20:26:53.960Z,5.23
2017-12-13T20:29:21.461Z,4.73
2017-12-13T20:31:48.843Z,4.55
2017-12-13T20:34:16.240Z,4.30
2017-12-13T20:36:43.663Z,3.73
2017-12-13T20:39:11.040Z,3.53
2017-12-13T20:41:38.446Z,2.90
2017-12-13T20:44:05.898Z,3.70
2017-12-13T20:46:33.291Z,3.60
2017-12-13T20:49:01.006Z,3.60
2017-12-13T20:51:28.386Z,3.83
2017-12-13T20:53:55.772Z,3.90
2017-12-13T20:56:23.155Z,4.13
2017-12-13T20:58:50.618Z,3.07
2017-12-13T21:01:18.168Z,3.70
2017-12-13T21:03:45.543Z,4.13
2017-12-13T21:06:12.935Z,4.57
2017-12-13T21:08:40.342Z,4.70
2017-12-13T21:11:07.809Z,3.50
2017-12-13T21:13:35.220Z,3.70
2017-12-13T21:16:02.594Z,3.77
2017-12-13T21:18:30.181Z,4.70
2017-12-13T21:20:57.574Z,3.00
2017-12-13T21:23:24.948Z,3.63
2017-12-13T21:25:52.450Z,3.30
2017-12-13T21:28:19.822Z,2.47
2017-12-13T21:30:47.222Z,2.90
2017-12-13T21:33:14.607Z,2.17
2017-12-13T21:35:42.000Z,2.67
2017-12-13T21:38:09.387Z,2.20
2017-12-13T21:40:36.790Z,2.33
2017-12-13T21:43:04.176Z,2.63
2017-12-13T21:45:31.559Z,2.47
2017-12-13T21:47:58.983Z,1.80
2017-12-13T21:50:26.372Z,2.30
2017-12-13T21:52:53.763Z,2.27
2017-12-13T21:55:21.142Z,1.97
2017-12-13T21:57:48.535Z,2.57
2017-12-13T22:00:15.916Z,2.43
2017-12-13T22:02:43.299Z,1.77
2017-12-13T22:05:10.689Z,1.80
2017-12-13T22:07:38.088Z,2.10
2017-12-13T22:10:05.468Z,2.37
2017-12-13T22:12:32.855Z,2.07
2017-12-13T22:15:00.239Z,1.80
2017-12-13T22:17:27.662Z,1.60
2017-12-13T22:19:55.053Z,1.67
2017-12-13T22:22:22.444Z,1.90
2017-12-13T22:24:49.852Z,2.00
2017-12-13T22:27:17.247Z,1.70
2017-12-13T22:29:44.658Z,2.10
2017-12-13T22:36:59.318Z,1.40
2017-12-13T22:39:26.696Z,1.33
2017-12-13T22:41:54.600Z,1.33
2017-12-13T22:44:22.027Z,1.87
2017-12-13T22:46:49.407Z,1.97
2017-12-13T22:49:16.800Z,1.43
2017-12-13T22:51:44.192Z,1.70
2017-12-13T22:54:11.582Z,1.50
2017-12-13T22:56:38.963Z,1.30
2017-12-13T22:59:06.359Z,1.77
2017-12-13T23:01:33.743Z,1.43
2017-12-13T23:04:01.158Z,1.60
2017-12-13T23:06:28.534Z,1.73
2017-12-13T23:08:55.920Z,1.83
2017-12-13T23:11:23.298Z,1.80
2017-12-13T23:13:50.691Z,1.30
2017-12-13T23:16:18.075Z,1.70
2017-12-13T23:18:45.471Z,2.20
2017-12-13T23:21:12.847Z,1.50
2017-12-13T23:23:40.256Z,0.90
2017-12-13T23:26:07.655Z,1.60
2017-12-13T23:28:35.032Z,2.00
2017-12-13T23:31:02.447Z,2.33
2017-12-13T23:33:29.823Z,1.93
2017-12-13T23:35:57.239Z,1.30
2017-12-13T23:38:24.625Z,1.03
2017-12-13T23:40:52.010Z,1.33
2017-12-13T23:43:19.391Z,1.30
2017-12-13T23:45:46.790Z,1.23
2017-12-13T23:48:14.166Z,1.60
2017-12-13T23:50:41.555Z,1.20
2017-12-13T23:53:08.941Z,1.40
2017-12-13T23:55:36.328Z,1.33
2017-12-13T23:58:03.739Z,1.50
